Time;durP1;ratioP1;P1;durP2;ratioP2;P2;SDS_P1;SDS_P2;PMS_P1;PMS_P2;Temp;Humidity;BMP_temperature;BMP_pressure;BME280_temperature;BME280_humidity;BME280_pressure;Samples;Min_cycle;Max_cycle;Signal;HPM_P1;HPM_P2
2022/10/08 00:01:14;;;;;;;13.68;3.60;;;;;;;15.51;61.41;101523.56;6278460;22;20033;-64
2022/10/08 00:03:47;;;;;;;12.15;3.55;;;;;;;15.58;61.24;101523.91;6250493;22;20019;-63
2022/10/08 00:06:16;;;;;;;11.82;3.45;;;;;;;15.61;61.06;101526.84;6277087;22;20026;-64
2022/10/08 00:08:48;;;;;;;11.13;3.30;;;;;;;15.59;60.81;101519.97;6278783;22;20020;-65
2022/10/08 00:11:20;;;;;;;13.40;3.55;;;;;;;15.13;61.05;101528.09;6251500;22;20019;-63
2022/10/08 00:13:49;;;;;;;10.48;3.60;;;;;;;15.12;61.91;101530.03;6278798;22;20084;-64
2022/10/08 00:16:23;;;;;;;14.82;3.67;;;;;;;14.84;62.37;101523.09;6277432;22;20008;-64
2022/10/08 00:18:53;;;;;;;12.75;3.95;;;;;;;15.06;63.60;101527.75;6249998;22;20016;-64
2022/10/08 00:21:24;;;;;;;16.95;3.70;;;;;;;14.71;63.37;101532.38;6278331;22;20396;-64
2022/10/08 00:23:52;;;;;;;13.02;3.75;;;;;;;15.20;63.28;101525.66;6278550;22;20137;-64
2022/10/08 00:26:23;;;;;;;10.57;3.38;;;;;;;15.20;62.53;101525.66;6277441;22;20034;-64
2022/10/08 00:28:55;;;;;;;14.23;3.40;;;;;;;14.98;63.83;101526.56;6251512;22;20022;-64
2022/10/08 00:31:35;;;;;;;14.60;3.38;;;;;;;14.87;63.19;101535.53;6250774;22;20022;-64
2022/10/08 00:34:04;;;;;;;9.97;3.00;;;;;;;14.65;62.70;101528.09;6278115;22;20019;-63
2022/10/08 00:36:33;;;;;;;10.50;3.63;;;;;;;14.60;64.32;101529.09;6277499;22;20363;-65
2022/10/08 00:39:06;;;;;;;9.80;3.00;;;;;;;15.07;64.46;101532.13;6253612;22;20061;-65
2022/10/08 00:41:36;;;;;;;7.10;2.60;;;;;;;14.69;62.99;101526.34;6279430;22;20342;-64
2022/10/08 00:44:40;;;;;;;9.45;3.20;;;;;;;14.78;65.08;101537.47;6277571;22;20026;-63
2022/10/08 00:47:18;;;;;;;13.57;3.20;;;;;;;14.84;64.64;101533.38;6279705;22;20020;-64
2022/10/08 00:49:48;;;;;;;10.05;3.10;;;;;;;14.81;64.66;101537.63;6252071;22;20542;-64
2022/10/08 00:52:17;;;;;;;9.25;2.80;;;;;;;14.82;65.33;101538.47;6228393;22;20023;-63
2022/10/08 00:54:44;;;;;;;10.43;3.50;;;;;;;14.93;64.76;101537.81;6252873;22;20016;-63
2022/10/08 00:57:12;;;;;;;9.93;3.17;;;;;;;15.09;64.25;101540.97;6252476;22;20015;-64
2022/10/08 00:59:39;;;;;;;9.07;2.83;;;;;;;15.12;64.16;101538.34;6253042;22;20020;-63
2022/10/08 01:02:07;;;;;;;13.75;3.10;;;;;;;15.02;63.80;101535.91;6280172;22;20022;-63
2022/10/08 01:04:36;;;;;;;9.98;3.28;;;;;;;15.20;64.04;101531.19;6227116;22;20030;-64
2022/10/08 01:07:17;;;;;;;14.68;3.25;;;;;;;15.25;63.77;101531.84;6252544;22;20008;-64
2022/10/08 01:10:07;;;;;;;12.35;3.30;;;;;;;15.39;63.42;101523.38;6253060;22;20020;-63
2022/10/08 01:12:53;;;;;;;;;;;;;;;15.47;63.03;101530.91;6253943;22;20317;-62
2022/10/08 01:15:35;;;;;;;11.55;2.92;;;;;;;15.40;63.35;101531.41;6279680;22;19916;-62
2022/10/08 01:18:12;;;;;;;11.82;2.97;;;;;;;15.51;63.07;101535.50;6253351;22;20027;-63
2022/10/08 01:20:44;;;;;;;13.60;3.05;;;;;;;14.96;63.09;101531.63;6252257;22;20024;-62
2022/10/08 01:23:11;;;;;;;15.35;2.67;;;;;;;14.91;63.53;101534.56;6227920;22;20344;-63
2022/10/08 01:25:57;;;;;;;13.43;3.33;;;;;;;14.77;65.68;101533.06;6279441;22;20034;-62
2022/10/08 01:28:35;;;;;;;14.40;2.67;;;;;;;15.00;65.53;101535.41;6280045;22;20016;-63
2022/10/08 01:31:09;;;;;;;7.32;2.17;;;;;;;15.22;64.43;101524.16;6226436;22;20015;-62
2022/10/08 01:33:44;;;;;;;10.07;2.50;;;;;;;15.01;64.57;101523.16;6253042;22;20018;-63
2022/10/08 01:36:13;;;;;;;9.32;2.63;;;;;;;15.13;64.62;101517.78;6252751;22;20016;-63
2022/10/08 01:38:45;;;;;;;8.38;2.25;;;;;;;15.13;64.61;101520.56;6227765;22;20027;-62
2022/10/08 01:41:14;;;;;;;9.20;2.42;;;;;;;14.98;65.57;101518.25;6252517;22;20020;-62
2022/10/08 01:43:45;;;;;;;11.25;2.88;;;;;;;15.16;65.26;101519.91;6252476;22;20019;-63
2022/10/08 01:46:19;;;;;;;9.75;2.58;;;;;;;15.33;64.79;101514.38;6251956;22;20019;-62
2022/10/08 01:48:48;;;;;;;7.95;2.67;;;;;;;15.41;64.48;101518.34;6225420;22;20016;-62
2022/10/08 01:51:26;;;;;;;8.30;2.27;;;;;;;15.41;63.99;101510.81;6252583;22;20015;-62
2022/10/08 01:53:54;;;;;;;7.88;2.45;;;;;;;15.17;65.43;101524.31;6227186;22;20020;-63
2022/10/08 01:56:26;;;;;;;8.35;2.17;;;;;;;15.12;65.10;101518.09;6250121;22;20020;-62
2022/10/08 01:58:58;;;;;;;8.38;2.33;;;;;;;15.03;64.80;101508.97;6251902;22;20015;-63
2022/10/08 02:01:35;;;;;;;9.50;2.38;;;;;;;14.83;66.58;101510.41;6279552;22;20079;-62
2022/10/08 02:06:56;;;;;;;6.10;2.30;;;;;;;14.97;66.14;101499.97;6279003;22;20016;-63
2022/10/08 02:09:28;;;;;;;10.25;2.10;;;;;;;14.98;66.25;101501.59;6226065;22;20019;-63
2022/10/08 02:11:56;;;;;;;7.47;2.30;;;;;;;14.95;66.36;101505.03;6278804;22;20015;-63
2022/10/08 02:14:25;;;;;;;9.10;1.98;;;;;;;14.73;66.81;101504.31;6201299;22;20019;-62
2022/10/08 02:17:02;;;;;;;9.85;1.85;;;;;;;14.92;67.28;101508.47;6251631;22;20019;-63
2022/10/08 02:19:51;;;;;;;8.15;2.00;;;;;;;15.16;65.67;101516.31;6252115;22;20015;-63
2022/10/08 02:22:24;;;;;;;11.20;2.03;;;;;;;15.23;65.75;101519.44;6278288;22;20024;-63
2022/10/08 02:24:59;;;;;;;10.85;2.00;;;;;;;15.11;65.30;101517.31;6278401;22;20025;-63
2022/10/08 02:27:36;;;;;;;8.98;2.10;;;;;;;15.15;66.16;101514.69;6251897;22;20012;-63
2022/10/08 02:30:08;;;;;;;12.18;1.77;;;;;;;14.78;66.13;101516.09;6227053;22;20023;-63
2022/10/08 02:32:47;;;;;;;8.57;1.88;;;;;;;15.23;65.93;101513.88;6226453;22;20016;-62
2022/10/08 02:35:28;;;;;;;10.00;2.23;;;;;;;15.33;65.41;101516.34;6252243;22;20026;-62
2022/10/08 02:38:04;;;;;;;8.32;1.92;;;;;;;15.03;65.47;101517.28;6278729;22;20011;-63
2022/10/08 02:40:32;;;;;;;8.82;2.38;;;;;;;14.96;65.50;101516.94;6251961;22;20289;-62
2022/10/08 02:43:06;;;;;;;7.82;1.60;;;;;;;15.15;66.41;101507.16;6251133;22;20020;-62
2022/10/08 02:45:42;;;;;;;8.52;1.85;;;;;;;15.33;65.18;101513.56;6278991;22;20020;-63
2022/10/08 02:48:15;;;;;;;11.55;2.42;;;;;;;14.60;67.02;101514.41;6278895;22;20026;-62
2022/10/08 02:50:43;;;;;;;8.23;2.00;;;;;;;14.71;67.92;101518.53;6251936;22;20026;-63
2022/10/08 02:53:14;;;;;;;10.13;2.65;;;;;;;14.61;67.95;101518.78;6227078;22;20015;-63
2022/10/08 02:56:06;;;;;;;6.75;1.85;;;;;;;14.68;67.87;101514.41;6278273;22;20027;-63
2022/10/08 02:58:34;;;;;;;11.55;2.55;;;;;;;14.50;68.13;101511.91;6278994;22;20018;-63
2022/10/08 03:01:27;;;;;;;9.75;2.53;;;;;;;14.26;70.20;101515.06;6279179;22;20520;-63
2022/10/08 03:03:59;;;;;;;10.70;2.30;;;;;;;14.89;68.85;101513.84;6253307;22;20012;-62
2022/10/08 03:06:27;;;;;;;8.30;2.08;;;;;;;15.07;67.38;101510.75;6224293;22;20019;-62
2022/10/08 03:08:57;;;;;;;6.40;1.90;;;;;;;15.31;67.00;101504.72;6252114;22;20024;-62
2022/10/08 03:11:24;;;;;;;10.00;2.58;;;;;;;15.38;66.47;101505.88;6251954;22;20365;-63
2022/10/08 03:13:57;;;;;;;7.13;1.70;;;;;;;15.31;66.87;101508.34;6251467;22;20027;-63
2022/10/08 03:16:41;;;;;;;11.45;2.38;;;;;;;15.04;67.40;101508.66;6226642;22;20020;-62
2022/10/08 03:19:11;;;;;;;12.25;2.47;;;;;;;15.19;67.67;101507.34;6251495;22;20440;-62
2022/10/08 03:21:39;;;;;;;9.20;2.10;;;;;;;15.34;66.91;101516.00;6225903;22;20030;-62
2022/10/08 03:24:11;;;;;;;10.15;2.40;;;;;;;14.99;67.99;101514.34;6250812;22;20026;-62
2022/10/08 03:26:39;;;;;;;10.38;2.08;;;;;;;14.95;68.34;101516.13;6251417;22;20016;-65
2022/10/08 03:29:07;;;;;;;9.05;2.10;;;;;;;15.02;67.96;101518.41;6278608;22;20020;-62
2022/10/08 03:31:35;;;;;;;9.82;2.05;;;;;;;14.94;68.04;101525.56;6278451;22;20026;-62
2022/10/08 03:34:03;;;;;;;15.02;2.55;;;;;;;14.62;70.06;101525.97;6278165;22;20019;-62
2022/10/08 03:36:30;;;;;;;10.05;2.15;;;;;;;14.60;70.37;101520.75;6278226;22;20042;-62
2022/10/08 03:38:58;;;;;;;10.35;2.38;;;;;;;14.42;71.40;101523.78;6251373;22;20015;-62
2022/10/08 03:41:25;;;;;;;10.00;1.90;;;;;;;14.72;70.76;101528.47;6278351;22;20340;-63
2022/10/08 03:43:52;;;;;;;8.50;2.00;;;;;;;14.83;69.94;101538.13;6278480;22;20373;-63
2022/10/08 03:46:19;;;;;;;8.93;2.03;;;;;;;14.68;69.67;101540.53;6250979;22;20023;-63
2022/10/08 03:48:48;;;;;;;8.60;2.15;;;;;;;15.01;69.74;101539.00;6251107;22;20475;-63
2022/10/08 03:51:17;;;;;;;9.45;2.33;;;;;;;14.90;69.44;101549.56;6277442;22;20020;-62
2022/10/08 03:53:44;;;;;;;6.88;2.13;;;;;;;14.68;70.40;101544.91;6251706;22;20020;-63
2022/10/08 03:56:15;;;;;;;7.95;2.10;;;;;;;14.58;70.58;101552.72;6251164;22;20031;-62
2022/10/08 03:58:43;;;;;;;9.13;1.98;;;;;;;14.96;70.26;101555.78;6250745;22;20014;-62
2022/10/08 04:01:13;;;;;;;7.43;1.80;;;;;;;15.06;69.58;101559.09;6278033;22;20016;-63
2022/10/08 04:03:41;;;;;;;13.23;2.53;;;;;;;15.09;69.35;101560.38;6251089;22;20020;-63
2022/10/08 04:06:08;;;;;;;11.80;2.50;;;;;;;14.73;70.30;101552.31;6250656;22;20031;-63
2022/10/08 04:08:36;;;;;;;10.98;2.67;;;;;;;15.02;70.08;101560.88;6225674;22;20018;-62
2022/10/08 04:11:05;;;;;;;11.18;2.30;;;;;;;15.27;68.92;101570.38;6250725;22;20011;-63
2022/10/08 04:13:33;;;;;;;8.13;2.00;;;;;;;15.37;68.33;101568.13;6225515;22;20019;-62
2022/10/08 04:16:05;;;;;;;7.10;1.73;;;;;;;15.08;69.62;101562.31;6277113;22;20022;-63
2022/10/08 04:18:33;;;;;;;11.38;2.22;;;;;;;15.26;69.05;101565.97;6250995;22;20016;-61
2022/10/08 04:21:03;;;;;;;12.13;2.53;;;;;;;15.34;68.69;101570.72;6277814;22;20011;-62
2022/10/08 04:23:33;;;;;;;9.45;2.30;;;;;;;14.78;70.77;101571.56;6278718;22;20023;-63
2022/10/08 04:26:00;;;;;;;11.68;2.22;;;;;;;14.86;70.59;101569.94;6251087;22;20411;-63
2022/10/08 04:28:28;;;;;;;12.30;2.25;;;;;;;14.38;72.68;101569.91;6278461;22;20015;-63
2022/10/08 04:31:00;;;;;;;11.35;2.53;;;;;;;14.36;73.65;101581.31;6278318;22;20027;-63
2022/10/08 04:33:33;;;;;;;11.85;2.30;;;;;;;13.99;75.36;101595.53;6252262;22;20027;-63
2022/10/08 04:36:05;;;;;;;9.02;2.20;;;;;;;14.25;75.84;101592.94;6278299;22;20016;-63
2022/10/08 04:38:33;;;;;;;14.60;2.67;;;;;;;14.79;73.34;101597.31;6278297;22;20008;-62
2022/10/08 04:41:02;;;;;;;8.75;2.40;;;;;;;14.65;73.15;101591.88;6224804;22;20015;-62
2022/10/08 04:43:30;;;;;;;10.65;2.00;;;;;;;14.55;74.35;101586.63;6251158;22;20038;-63
2022/10/08 04:45:57;;;;;;;12.40;2.50;;;;;;;14.07;76.55;101597.53;6278203;22;20015;-63
2022/10/08 04:48:24;;;;;;;10.13;2.63;;;;;;;13.88;78.40;101587.81;6277900;22;20702;-63
2022/10/08 04:50:56;;;;;;;9.77;2.40;;;;;;;13.52;80.98;101608.03;6249994;22;20027;-64
2022/10/08 04:53:27;;;;;;;8.50;2.42;;;;;;;13.72;80.84;101609.47;6251232;22;20020;-64
2022/10/08 04:55:55;;;;;;;14.02;2.47;;;;;;;13.44;81.41;101611.50;6277885;22;20019;-62
2022/10/08 04:58:24;;;;;;;15.88;3.05;;;;;;;13.73;81.61;101607.53;6277529;22;20308;-63
2022/10/08 05:00:51;;;;;;;14.73;2.77;;;;;;;14.11;80.04;101611.59;6278377;22;20015;-64
2022/10/08 05:03:19;;;;;;;14.25;2.20;;;;;;;13.85;80.30;101622.47;6276853;22;20476;-64
2022/10/08 05:05:46;;;;;;;10.75;2.58;;;;;;;14.18;78.77;101615.56;6251051;22;20020;-64
2022/10/08 05:08:13;;;;;;;10.70;2.33;;;;;;;14.22;78.66;101615.75;6277851;22;20016;-62
2022/10/08 05:10:46;;;;;;;8.82;2.17;;;;;;;14.73;76.38;101620.81;6250875;22;20015;-61
2022/10/08 05:13:14;;;;;;;15.75;2.30;;;;;;;14.31;77.38;101613.88;6250964;22;20016;-63
2022/10/08 05:15:41;;;;;;;8.35;2.50;;;;;;;14.57;76.25;101623.97;6277281;22;20313;-62
2022/10/08 05:18:08;;;;;;;9.00;2.20;;;;;;;14.59;75.75;101618.13;6276386;22;20020;-62
2022/10/08 05:20:36;;;;;;;11.50;2.40;;;;;;;14.52;76.31;101628.84;6250260;22;20023;-62
2022/10/08 05:23:03;;;;;;;11.65;2.47;;;;;;;13.96;78.81;101637.72;6251002;22;20020;-62
2022/10/08 05:25:31;;;;;;;11.38;3.08;;;;;;;14.19;78.05;101630.25;6278804;22;20050;-62
2022/10/08 05:27:58;;;;;;;16.02;2.88;;;;;;;14.38;76.97;101639.22;6251427;22;20054;-63
2022/10/08 05:30:26;;;;;;;10.43;2.30;;;;;;;14.16;78.08;101628.06;6251422;22;20510;-65
2022/10/08 05:32:53;;;;;;;11.93;2.95;;;;;;;14.36;77.46;101630.38;6279502;22;20026;-63
2022/10/08 05:35:21;;;;;;;12.85;2.33;;;;;;;14.37;77.17;101634.78;6279361;22;20015;-63
2022/10/08 05:37:48;;;;;;;13.82;2.60;;;;;;;14.54;76.57;101632.94;6253006;22;20525;-62
2022/10/08 05:40:16;;;;;;;14.52;2.92;;;;;;;14.77;75.59;101644.00;6251666;22;20019;-63
2022/10/08 05:42:43;;;;;;;9.88;2.42;;;;;;;14.64;75.37;101645.72;6279446;22;20019;-62
2022/10/08 05:45:11;;;;;;;9.27;2.53;;;;;;;14.71;75.56;101650.81;6279629;22;20012;-63
2022/10/08 05:47:38;;;;;;;12.38;2.92;;;;;;;14.41;76.75;101647.72;6252818;22;20527;-64
2022/10/08 05:50:06;;;;;;;11.93;2.72;;;;;;;14.43;78.04;101650.97;6280018;22;20016;-63
2022/10/08 05:52:33;;;;;;;13.32;2.80;;;;;;;14.37;78.81;101649.47;6253295;22;20597;-64
2022/10/08 05:55:00;;;;;;;11.45;2.95;;;;;;;14.07;79.78;101641.06;6252546;22;20020;-65
2022/10/08 05:57:28;;;;;;;10.50;2.55;;;;;;;14.30;78.90;101648.25;6279343;22;20023;-64
2022/10/08 05:59:55;;;;;;;17.77;2.67;;;;;;;14.22;78.49;101649.00;6277644;22;20447;-65
2022/10/08 06:02:22;;;;;;;18.13;3.35;;;;;;;14.03;80.51;101651.13;6279292;22;20018;-63
2022/10/08 06:04:50;;;;;;;17.52;3.28;;;;;;;14.28;79.83;101653.28;6279483;22;20050;-63
2022/10/08 06:07:17;;;;;;;12.05;2.85;;;;;;;14.50;78.84;101658.84;6278818;22;20046;-65
2022/10/08 06:09:44;;;;;;;19.98;2.55;;;;;;;14.58;78.17;101666.38;6279138;22;20030;-64
2022/10/08 06:12:12;;;;;;;17.23;4.40;;;;;;;14.69;77.74;101662.22;6279258;22;20015;-64
2022/10/08 06:14:40;;;;;;;21.20;11.18;;;;;;;14.62;77.44;101668.22;6278699;22;20016;-65
2022/10/08 06:17:07;;;;;;;12.55;4.28;;;;;;;14.67;77.34;101664.50;6252236;22;20019;-64
2022/10/08 06:19:36;;;;;;;13.93;3.35;;;;;;;14.59;77.89;101662.50;6251160;22;20020;-65
2022/10/08 06:22:03;;;;;;;19.63;2.55;;;;;;;14.50;77.85;101664.38;6278395;22;20020;-66
2022/10/08 06:24:31;;;;;;;10.85;2.72;;;;;;;14.46;77.72;101663.38;6279199;22;20042;-66
2022/10/08 06:26:58;;;;;;;13.95;3.05;;;;;;;14.50;78.13;101676.31;6251635;22;20019;-66
2022/10/08 06:29:25;;;;;;;11.93;2.67;;;;;;;14.77;77.05;101688.38;6277202;22;20528;-65
2022/10/08 06:31:53;;;;;;;14.38;2.80;;;;;;;14.09;77.76;101695.03;6279737;22;20015;-66
2022/10/08 06:34:20;;;;;;;11.93;2.75;;;;;;;14.36;78.96;101691.38;6251091;22;20501;-66
2022/10/08 06:36:47;;;;;;;14.07;2.80;;;;;;;14.35;78.11;101696.06;6252020;22;20331;-66
2022/10/08 06:39:16;;;;;;;9.30;3.00;;;;;;;14.50;77.84;101692.13;6251278;22;20038;-66
2022/10/08 06:41:44;;;;;;;13.20;2.53;;;;;;;14.40;77.72;101706.25;6226288;22;20431;-66
2022/10/08 06:44:13;;;;;;;15.73;4.20;;;;;;;14.40;78.17;101707.03;6276223;22;20019;-66
2022/10/08 06:46:41;;;;;;;13.13;3.05;;;;;;;14.38;77.65;101709.28;6252063;22;20031;-66
2022/10/08 06:49:09;;;;;;;10.55;2.90;;;;;;;14.34;77.63;101708.31;6279213;22;20016;-66
2022/10/08 06:51:37;;;;;;;14.65;4.20;;;;;;;14.42;77.74;101715.03;6252317;22;20015;-66
2022/10/08 06:54:05;;;;;;;14.40;3.03;;;;;;;14.56;77.09;101713.00;6279262;22;20016;-65
2022/10/08 06:56:35;;;;;;;;;;;;;;;14.61;76.57;101715.66;6279368;22;20301;-67
2022/10/08 06:59:04;;;;;;;16.23;5.55;;;;;;;14.64;76.42;101715.84;6227124;22;19922;-66
2022/10/08 07:01:32;;;;;;;18.35;5.68;;;;;;;14.68;76.17;101727.13;6250460;22;20020;-66
2022/10/08 07:04:01;;;;;;;10.13;3.20;;;;;;;14.74;75.80;101727.81;6252288;22;20023;-66
2022/10/08 07:06:28;;;;;;;15.68;3.33;;;;;;;14.49;76.48;101727.31;6252383;22;20015;-66
2022/10/08 07:08:58;;;;;;;11.15;3.80;;;;;;;14.68;76.27;101729.91;6226129;22;20331;-66
2022/10/08 07:11:25;;;;;;;15.97;3.70;;;;;;;14.74;75.81;101734.19;6278933;22;20022;-67
2022/10/08 07:13:53;;;;;;;15.02;3.53;;;;;;;14.78;75.70;101740.75;6279206;22;20019;-67
2022/10/08 07:16:23;;;;;;;12.23;3.35;;;;;;;14.77;75.69;101746.63;6278962;22;20331;-66
2022/10/08 07:18:52;;;;;;;13.70;2.90;;;;;;;14.67;75.66;101758.78;6251020;22;20023;-66
2022/10/08 07:21:20;;;;;;;18.20;3.33;;;;;;;14.72;75.62;101758.66;6278387;22;20016;-66
2022/10/08 07:23:48;;;;;;;12.85;3.25;;;;;;;14.72;75.49;101760.59;6252478;22;20015;-67
2022/10/08 07:26:17;;;;;;;12.82;2.80;;;;;;;14.82;75.41;101763.94;6278496;22;20026;-66
2022/10/08 07:28:56;;;;;;;14.38;3.17;;;;;;;14.84;74.96;101761.66;6251764;22;20024;-67
2022/10/08 07:31:30;;;;;;;13.25;3.25;;;;;;;14.89;75.25;101766.28;6251423;22;20038;-66
2022/10/08 07:33:58;;;;;;;11.93;3.08;;;;;;;14.90;75.19;101768.72;6278229;22;20012;-66
2022/10/08 07:36:27;;;;;;;18.70;4.43;;;;;;;14.95;74.89;101779.69;6251910;22;20022;-66
2022/10/08 07:39:12;;;;;;;20.17;3.78;;;;;;;14.91;75.17;101778.69;6225918;22;20020;-66
2022/10/08 07:41:40;;;;;;;16.38;3.72;;;;;;;14.87;75.01;101782.41;6278774;22;20431;-66
2022/10/08 07:44:09;;;;;;;20.17;3.70;;;;;;;14.40;76.87;101787.41;6279043;22;20319;-66
2022/10/08 07:46:41;;;;;;;11.70;3.10;;;;;;;14.62;77.04;101786.63;6278617;22;20016;-66
2022/10/08 07:49:08;;;;;;;22.23;6.72;;;;;;;14.78;76.37;101785.13;6251269;22;20019;-66
2022/10/08 07:51:36;;;;;;;15.90;4.28;;;;;;;14.91;75.64;101795.31;6250775;22;20018;-66
2022/10/08 07:54:07;;;;;;;32.03;18.17;;;;;;;14.99;75.00;101797.34;6278793;22;20471;-68
2022/10/08 07:56:35;;;;;;;18.80;5.22;;;;;;;14.95;75.19;101795.50;6278560;22;20022;-67
2022/10/08 07:59:03;;;;;;;19.23;4.13;;;;;;;15.06;74.91;101808.00;6278929;22;20042;-67
2022/10/08 08:01:32;;;;;;;14.88;4.18;;;;;;;15.15;74.41;101800.53;6278476;22;20470;-66
2022/10/08 08:04:01;;;;;;;15.27;5.50;;;;;;;15.30;74.38;101809.28;6252000;22;20130;-67
2022/10/08 08:06:30;;;;;;;15.95;4.45;;;;;;;15.27;73.78;101803.56;6225825;22;20034;-66
2022/10/08 08:09:01;;;;;;;17.40;4.53;;;;;;;15.34;73.76;101812.25;6250734;22;20019;-67
2022/10/08 08:11:28;;;;;;;18.10;3.88;;;;;;;15.36;73.85;101812.75;6276827;22;20015;-65
2022/10/08 08:13:56;;;;;;;12.57;3.33;;;;;;;15.23;74.25;101808.09;6252311;22;20026;-67
2022/10/08 08:16:25;;;;;;;14.60;3.17;;;;;;;15.27;74.14;101820.22;6278440;22;20022;-66
2022/10/08 08:18:54;;;;;;;16.77;3.57;;;;;;;15.41;73.99;101821.78;6278660;22;20028;-66
2022/10/08 08:21:36;;;;;;;13.70;3.30;;;;;;;15.46;73.28;101823.59;6250332;22;20250;-66
2022/10/08 08:24:05;;;;;;;16.63;3.17;;;;;;;14.96;75.65;101833.22;6252008;22;20344;-66
2022/10/08 08:26:35;;;;;;;17.03;2.90;;;;;;;15.14;75.28;101838.56;6277837;22;20016;-67
2022/10/08 08:29:04;;;;;;;;;;;;;;;15.43;74.57;101835.34;6252178;22;20243;-67
2022/10/08 08:31:37;;;;;;;21.98;3.88;;;;;;;14.97;75.79;101844.00;6250316;22;19915;-66
2022/10/08 08:34:07;;;;;;;14.82;3.55;;;;;;;14.57;78.26;101847.75;6251116;22;20087;-66
2022/10/08 08:36:38;;;;;;;19.48;3.47;;;;;;;14.44;79.68;101846.66;6250907;22;20023;-66
2022/10/08 08:39:07;;;;;;;14.13;3.28;;;;;;;14.31;80.90;101844.72;6278141;22;20016;-65
2022/10/08 08:42:06;;;;;;;15.93;4.07;;;;;;;14.80;78.24;101856.94;6250899;22;20115;-66
2022/10/08 08:44:37;;;;;;;21.58;4.00;;;;;;;14.09;80.83;101854.88;6260978;22;20301;-65
2022/10/08 08:47:19;;;;;;;19.23;3.42;;;;;;;14.35;80.66;101851.28;6250743;22;20023;-64
2022/10/08 08:49:51;;;;;;;14.57;3.00;;;;;;;14.36;80.10;101857.66;6251240;22;20335;-66
2022/10/08 08:52:22;;;;;;;16.52;3.40;;;;;;;14.72;79.02;101866.81;6251204;22;20038;-67
2022/10/08 08:54:52;;;;;;;14.88;3.03;;;;;;;14.43;78.83;101874.69;6278252;22;20027;-66
2022/10/08 08:57:37;;;;;;;17.65;3.70;;;;;;;14.20;80.06;101867.41;6251276;22;20145;-66
2022/10/08 09:00:10;;;;;;;26.25;4.13;;;;;;;14.28;80.04;101875.00;6279158;22;20020;-65
2022/10/08 09:02:54;;;;;;;17.38;2.60;;;;;;;14.03;80.10;101867.22;6280106;22;20023;-66
2022/10/08 09:05:24;;;;;;;16.75;3.25;;;;;;;14.26;79.63;101871.75;6253095;22;20022;-66
2022/10/08 09:07:58;;;;;;;15.63;3.95;;;;;;;14.49;79.50;101879.81;6252472;22;20015;-67
2022/10/08 09:10:35;;;;;;;17.67;3.08;;;;;;;14.75;77.66;101880.03;6252939;22;20030;-67
2022/10/08 09:13:03;;;;;;;19.77;3.35;;;;;;;14.81;76.75;101884.34;6253328;22;20026;-66
2022/10/08 09:15:35;;;;;;;15.82;3.33;;;;;;;14.48;76.41;101882.91;6252460;22;20027;-67
2022/10/08 09:18:03;;;;;;;21.83;3.97;;;;;;;14.56;76.52;101884.91;6280098;22;20020;-66
2022/10/08 09:20:31;;;;;;;21.25;3.50;;;;;;;14.74;76.25;101886.72;6252924;22;20023;-65
2022/10/08 09:23:28;;;;;;;14.68;3.13;;;;;;;14.90;75.18;101884.41;6280383;22;20027;-66
2022/10/08 09:25:59;;;;;;;20.45;3.88;;;;;;;14.97;74.62;101885.63;6252115;22;20340;-66
2022/10/08 09:28:53;;;;;;;18.92;4.22;;;;;;;15.18;73.19;101884.00;6279481;22;20039;-66
2022/10/08 09:31:28;;;;;;;22.05;4.40;;;;;;;15.30;73.17;101897.28;6279775;22;20018;-65
2022/10/08 09:34:15;;;;;;;16.67;3.20;;;;;;;15.21;71.71;101890.84;6280469;22;20020;-65
2022/10/08 09:37:03;;;;;;;17.42;2.65;;;;;;;15.04;71.74;101896.28;6226526;22;20031;-66
2022/10/08 09:39:36;;;;;;;21.33;3.67;;;;;;;15.07;70.44;101899.25;6280116;22;20024;-66
2022/10/08 09:42:06;;;;;;;14.68;3.05;;;;;;;14.72;71.87;101902.88;6279155;22;20119;-65
2022/10/08 09:44:39;;;;;;;;;;;;;;;14.85;70.38;101913.09;6253019;22;20028;-66
2022/10/08 09:47:10;;;;;;;18.58;2.75;;;;;;;14.89;69.43;101913.31;6279852;22;19921;-67
2022/10/08 09:49:39;;;;;;;16.33;2.70;;;;;;;15.07;68.79;101907.56;6279519;22;20030;-67
2022/10/08 09:52:25;;;;;;;13.18;2.25;;;;;;;14.98;66.64;101915.00;6252567;22;20390;-67
2022/10/08 09:55:01;;;;;;;13.18;2.30;;;;;;;15.08;68.03;101903.66;6252880;22;20321;-67
2022/10/08 09:57:29;;;;;;;13.50;2.55;;;;;;;15.26;66.99;101910.97;6227403;22;20019;-66
2022/10/08 09:59:59;;;;;;;13.02;3.15;;;;;;;15.42;66.77;101903.94;6279895;22;20442;-67
2022/10/08 10:02:29;;;;;;;16.15;2.88;;;;;;;15.62;66.87;101905.38;6252427;22;20474;-67
2022/10/08 10:04:58;;;;;;;14.57;3.05;;;;;;;15.43;65.16;101904.78;6252500;22;20070;-66
2022/10/08 10:07:46;;;;;;;19.48;2.92;;;;;;;15.30;65.28;101903.66;6278741;22;20019;-67
2022/10/08 10:10:18;;;;;;;8.55;2.00;;;;;;;15.47;65.39;101906.59;6231502;22;20023;-67
2022/10/08 10:12:51;;;;;;;13.55;2.47;;;;;;;15.62;64.41;101905.38;6202040;22;20038;-67
2022/10/08 10:15:45;;;;;;;13.00;2.60;;;;;;;15.82;63.68;101906.75;6278702;22;20024;-66
2022/10/08 10:18:16;;;;;;;15.98;2.58;;;;;;;15.84;63.78;101916.44;6273803;22;20026;-66
2022/10/08 10:20:47;;;;;;;12.40;2.65;;;;;;;15.97;62.60;101914.69;6278953;22;20023;-66
2022/10/08 10:23:18;;;;;;;20.85;2.80;;;;;;;16.18;62.30;101912.97;6251612;22;20026;-66
2022/10/08 10:25:53;;;;;;;14.85;2.65;;;;;;;16.40;60.73;101908.16;6226662;22;20027;-66
2022/10/08 10:28:39;;;;;;;12.10;2.35;;;;;;;16.43;60.75;101907.47;6228326;22;20020;-66
2022/10/08 10:31:15;;;;;;;14.68;2.80;;;;;;;16.36;59.57;101909.09;6226480;22;20016;-67
2022/10/08 10:33:53;;;;;;;12.80;2.53;;;;;;;16.10;60.53;101908.19;6252529;22;20613;-66
2022/10/08 10:36:22;;;;;;;13.20;2.58;;;;;;;16.23;60.33;101915.63;6225551;22;20046;-66
2022/10/08 10:39:05;;;;;;;11.93;2.08;;;;;;;15.95;61.40;101914.19;6279688;22;20027;-66
2022/10/08 10:41:41;;;;;;;11.35;2.28;;;;;;;16.13;59.40;101908.38;6279022;22;20012;-66
2022/10/08 10:44:10;;;;;;;11.85;2.42;;;;;;;16.03;60.70;101908.66;6225842;22;20029;-66
2022/10/08 10:46:43;;;;;;;12.88;2.28;;;;;;;15.83;61.37;101916.75;6251513;22;20023;-67
2022/10/08 10:49:20;;;;;;;14.27;2.83;;;;;;;16.00;61.34;101917.66;6226739;22;20343;-65
2022/10/08 10:52:32;;;;;;;16.73;3.35;;;;;;;16.26;61.19;101915.78;6278927;22;20011;-66
2022/10/08 10:55:22;;;;;;;12.82;1.98;;;;;;;16.08;61.26;101914.06;6279048;22;20016;-67
2022/10/08 10:58:18;;;;;;;14.38;2.47;;;;;;;15.88;62.45;101913.84;6252492;22;20016;-66
2022/10/08 11:00:54;;;;;;;11.65;2.50;;;;;;;15.99;60.43;101918.78;6279044;22;20035;-66
2022/10/08 11:03:41;;;;;;;12.55;2.45;;;;;;;16.10;58.99;101916.53;6227488;22;20019;-66
2022/10/08 11:06:38;;;;;;;14.32;2.25;;;;;;;15.99;58.10;101917.97;6278473;22;20026;-67
2022/10/08 11:09:08;;;;;;;14.93;2.45;;;;;;;16.08;58.10;101919.63;6267936;22;20027;-66
2022/10/08 11:11:40;;;;;;;15.25;3.28;;;;;;;16.03;58.37;101921.72;6251502;22;20018;-66
2022/10/08 11:14:19;;;;;;;16.02;3.10;;;;;;;16.21;57.88;101915.94;6252294;22;20020;-66
2022/10/08 11:16:49;;;;;;;12.50;2.15;;;;;;;16.52;58.04;101910.31;6250393;22;20016;-66
2022/10/08 11:19:24;;;;;;;;;;;;;;;16.61;56.82;101916.72;6250489;22;20468;-65
2022/10/08 11:22:09;;;;;;;17.80;2.75;;;;;;;16.12;57.46;101917.03;6278384;22;19915;-66
2022/10/08 11:24:51;;;;;;;15.05;1.98;;;;;;;16.14;56.77;101914.75;6278544;22;20019;-66
2022/10/08 11:27:21;;;;;;;10.05;2.22;;;;;;;16.29;54.29;101915.13;6250881;22;20019;-66
2022/10/08 11:30:03;;;;;;;10.63;2.20;;;;;;;16.30;53.53;101913.19;6279122;22;20020;-65
2022/10/08 11:32:32;;;;;;;11.10;1.95;;;;;;;16.11;53.21;101910.66;6278283;22;20238;-66
2022/10/08 11:35:10;;;;;;;13.60;2.43;;;;;;;16.24;53.57;101912.50;6278967;22;20428;-66
2022/10/08 11:37:53;;;;;;;15.27;2.17;;;;;;;16.25;54.11;101910.56;6278485;22;20022;-65
2022/10/08 11:40:34;;;;;;;10.07;1.67;;;;;;;16.48;52.04;101910.16;6251170;22;20020;-66
2022/10/08 11:43:10;;;;;;;9.85;1.90;;;;;;;16.49;51.83;101905.41;6251574;22;20008;-66
2022/10/08 11:45:43;;;;;;;11.77;2.13;;;;;;;16.61;50.75;101905.59;6250946;22;20024;-66